CPX773 Details

Departure: Liège Airport (EBLG)
Arrival: Kuwait International Airport (OKBK)
Route: TUTOV FFM L984 OSBIT UZ205 LULAR Z205 ABUDO Z37 GIMBO INVED M747 CND L5 ADINA L851 KUGOS UW704 SIN CRM UM688 AD AD2D


Current Weather Information
EBLG 232220Z 14005KT 120V180 CAVOK 16/07 Q1016 NOSIG
OKBK 232200Z 28004KT CAVOK 28/09 Q1008 NOSIG